createdAt,value
2018-12-08T00:01:12.466Z,6.90
2018-12-08T00:03:46.130Z,10.37
2018-12-08T00:06:16.660Z,7.30
2018-12-08T00:08:47.357Z,7.30
2018-12-08T00:11:18.451Z,9.03
2018-12-08T00:13:48.584Z,8.73
2018-12-08T00:16:25.300Z,12.43
2018-12-08T00:18:56.360Z,8.20
2018-12-08T00:21:27.556Z,7.45
2018-12-08T00:24:00.511Z,11.90
2018-12-08T00:26:31.126Z,10.97
2018-12-08T00:29:02.575Z,11.28
2018-12-08T00:31:45.847Z,10.60
2018-12-08T00:34:18.600Z,11.13
2018-12-08T00:36:49.565Z,15.23
2018-12-08T00:39:22.503Z,12.67
2018-12-08T00:41:56.548Z,11.13
2018-12-08T00:44:29.606Z,10.88
2018-12-08T00:47:06.525Z,11.10
2018-12-08T00:49:42.473Z,15.20
2018-12-08T00:52:13.747Z,14.45
2018-12-08T00:54:46.744Z,12.20
2018-12-08T00:57:17.281Z,12.63
2018-12-08T00:59:47.817Z,13.60
2018-12-08T01:02:18.794Z,14.33
2018-12-08T01:04:48.777Z,18.85
2018-12-08T01:07:19.612Z,14.95
2018-12-08T01:09:49.668Z,20.27
2018-12-08T01:12:20.745Z,17.17
2018-12-08T01:14:54.471Z,18.87
2018-12-08T01:17:24.856Z,15.23
2018-12-08T01:19:55.687Z,16.00
2018-12-08T01:22:26.774Z,18.87
2018-12-08T01:24:59.864Z,14.07
2018-12-08T01:27:37.533Z,25.73
2018-12-08T01:30:08.048Z,21.47
2018-12-08T01:32:46.638Z,17.48
2018-12-08T01:35:17.875Z,16.20
2018-12-08T01:37:48.758Z,18.17
2018-12-08T01:40:21.740Z,16.97
2018-12-08T01:42:56.695Z,17.33
2018-12-08T01:45:27.045Z,23.92
2018-12-08T01:47:58.391Z,28.17
2018-12-08T01:50:28.919Z,15.90
2018-12-08T01:52:58.947Z,12.80
2018-12-08T01:55:34.612Z,16.03
2018-12-08T01:58:06.253Z,21.90
2018-12-08T02:00:38.228Z,15.57
2018-12-08T02:03:13.383Z,13.03
2018-12-08T02:05:44.029Z,10.37
2018-12-08T02:08:14.817Z,6.00
2018-12-08T02:10:45.301Z,6.83
2018-12-08T02:13:15.930Z,5.27
2018-12-08T02:15:46.558Z,4.37
2018-12-08T02:18:17.009Z,4.30
2018-12-08T02:20:47.081Z,4.10
2018-12-08T02:23:18.099Z,6.05
2018-12-08T02:25:50.218Z,3.67
2018-12-08T02:28:23.013Z,4.10
2018-12-08T02:30:53.461Z,9.23
2018-12-08T02:33:24.144Z,4.60
2018-12-08T02:35:55.050Z,4.90
2018-12-08T02:38:25.207Z,4.07
2018-12-08T02:40:56.099Z,3.27
2018-12-08T02:43:27.147Z,4.85
2018-12-08T02:45:58.119Z,3.13
2018-12-08T02:48:29.635Z,2.70
2018-12-08T02:51:00.204Z,2.17
2018-12-08T02:53:37.956Z,5.10
2018-12-08T02:56:10.348Z,12.13
2018-12-08T02:58:41.314Z,2.00
2018-12-08T03:01:20.115Z,1.73
2018-12-08T03:03:51.204Z,1.00
2018-12-08T03:06:21.267Z,1.50
2018-12-08T03:08:55.104Z,1.77
2018-12-08T03:11:25.231Z,3.10
2018-12-08T03:13:56.295Z,1.10
2018-12-08T03:16:29.296Z,1.67
2018-12-08T03:19:00.112Z,1.93
2018-12-08T03:21:31.161Z,2.03
2018-12-08T03:24:01.161Z,2.40
2018-12-08T03:26:31.145Z,3.70
2018-12-08T03:29:03.288Z,2.40
2018-12-08T03:31:33.279Z,1.00
2018-12-08T03:34:04.194Z,3.90
2018-12-08T03:36:34.297Z,1.27
2018-12-08T03:39:07.974Z,2.50
2018-12-08T03:41:38.360Z,3.67
2018-12-08T03:44:10.289Z,3.10
2018-12-08T03:46:40.969Z,1.37
2018-12-08T03:49:12.250Z,1.82
2018-12-08T03:51:42.654Z,3.40
2018-12-08T03:54:19.133Z,1.27
2018-12-08T03:56:50.353Z,3.33
2018-12-08T03:59:24.196Z,2.00
2018-12-08T04:01:54.496Z,1.03
2018-12-08T04:04:25.383Z,1.93
2018-12-08T04:06:56.395Z,1.17
2018-12-08T04:09:26.419Z,3.80
2018-12-08T04:11:57.618Z,4.40
2018-12-08T04:14:30.601Z,4.93
2018-12-08T04:17:00.639Z,4.50
2018-12-08T04:19:31.642Z,6.90
2018-12-08T04:22:02.517Z,3.67
2018-12-08T04:24:32.513Z,5.10
2018-12-08T04:27:03.590Z,1.70
2018-12-08T04:29:37.324Z,6.03
2018-12-08T04:32:07.705Z,2.70
2018-12-08T04:34:38.645Z,3.23
2018-12-08T04:37:12.558Z,4.33
2018-12-08T04:39:42.630Z,5.27
2018-12-08T04:42:16.356Z,1.30
2018-12-08T04:44:47.533Z,1.63
2018-12-08T04:47:17.715Z,6.33
2018-12-08T04:49:48.676Z,0.90
2018-12-08T04:52:20.182Z,3.10
2018-12-08T04:54:50.609Z,2.90
2018-12-08T04:57:21.572Z,3.92
2018-12-08T04:59:51.725Z,3.73
2018-12-08T05:02:22.867Z,1.40
2018-12-08T05:04:53.599Z,2.70
2018-12-08T05:07:24.766Z,1.50
2018-12-08T05:09:56.716Z,2.53
2018-12-08T05:12:28.667Z,4.27
2018-12-08T05:14:58.763Z,2.17
2018-12-08T05:17:29.695Z,2.80
2018-12-08T05:20:00.743Z,2.87
2018-12-08T05:22:30.841Z,2.67
2018-12-08T05:25:01.887Z,2.03
2018-12-08T05:27:34.883Z,1.80
2018-12-08T05:30:06.572Z,2.50
2018-12-08T05:32:38.251Z,1.40
2018-12-08T05:35:10.645Z,2.83
2018-12-08T05:37:40.825Z,1.30
2018-12-08T05:40:14.627Z,3.90
2018-12-08T05:42:45.787Z,1.23
2018-12-08T05:45:15.802Z,1.57
2018-12-08T05:47:46.801Z,1.63
2018-12-08T05:50:17.969Z,1.57
2018-12-08T05:52:50.850Z,2.50
2018-12-08T05:55:21.815Z,6.17
2018-12-08T05:57:52.957Z,1.70
2018-12-08T06:00:24.057Z,5.00
2018-12-08T06:02:54.017Z,2.60
2018-12-08T06:05:24.934Z,0.83
2018-12-08T06:07:55.959Z,2.17
2018-12-08T06:10:27.041Z,8.20
2018-12-08T06:12:58.570Z,2.77
2018-12-08T06:15:31.039Z,6.40
2018-12-08T06:18:02.075Z,3.40
2018-12-08T06:20:34.688Z,2.77
2018-12-08T06:23:06.005Z,2.60
2018-12-08T06:25:39.382Z,1.63
2018-12-08T06:28:18.218Z,2.83
2018-12-08T06:30:56.178Z,1.10
2018-12-08T06:33:27.020Z,3.62
2018-12-08T06:35:57.034Z,0.70
2018-12-08T06:38:27.051Z,1.40
2018-12-08T06:40:58.146Z,4.03
2018-12-08T06:43:32.099Z,3.50
2018-12-08T06:46:03.216Z,5.70
2018-12-08T06:48:33.278Z,1.53
2018-12-08T06:51:04.505Z,6.67
2018-12-08T06:53:34.906Z,3.03
2018-12-08T06:56:06.458Z,4.10
2018-12-08T06:58:38.250Z,2.30
2018-12-08T07:01:10.417Z,0.90
2018-12-08T07:03:41.299Z,2.07
2018-12-08T07:06:12.208Z,3.40
2018-12-08T07:08:42.222Z,5.67
2018-12-08T07:11:13.314Z,1.17
2018-12-08T07:13:44.575Z,2.77
2018-12-08T07:16:15.420Z,2.95
2018-12-08T07:18:46.342Z,1.40
2018-12-08T07:21:16.341Z,1.70
2018-12-08T07:23:46.829Z,0.60
2018-12-08T07:26:17.436Z,4.70
2018-12-08T07:28:47.575Z,1.73
2018-12-08T07:31:18.386Z,4.00
2018-12-08T07:33:48.412Z,2.30
2018-12-08T07:36:20.224Z,6.63
2018-12-08T07:38:52.463Z,1.97
2018-12-08T07:41:26.538Z,3.30
2018-12-08T07:43:57.521Z,2.17
2018-12-08T07:46:30.464Z,5.97
2018-12-08T07:49:04.330Z,2.10
2018-12-08T07:51:34.493Z,2.10
2018-12-08T07:54:05.262Z,4.53
2018-12-08T07:56:35.642Z,4.20
2018-12-08T07:59:13.420Z,3.37
2018-12-08T08:01:44.538Z,4.23
2018-12-08T08:04:17.509Z,1.83
2018-12-08T08:06:48.540Z,4.47
2018-12-08T08:09:18.643Z,3.73
2018-12-08T08:11:49.583Z,2.70
2018-12-08T08:14:20.607Z,2.90
2018-12-08T08:16:51.464Z,7.47
2018-12-08T08:19:23.742Z,1.42
2018-12-08T08:21:55.750Z,3.33
2018-12-08T08:24:29.698Z,2.87
2018-12-08T08:27:03.696Z,1.50
2018-12-08T08:29:34.940Z,2.60
2018-12-08T08:32:04.959Z,2.83
2018-12-08T08:34:35.209Z,1.80
2018-12-08T08:37:05.639Z,2.10
2018-12-08T08:39:35.639Z,3.17
2018-12-08T08:42:06.735Z,2.87
2018-12-08T08:44:38.716Z,3.80
2018-12-08T08:47:09.013Z,6.10
2018-12-08T08:49:38.989Z,3.13
2018-12-08T08:52:10.849Z,3.43
2018-12-08T08:54:47.552Z,2.07
2018-12-08T08:57:18.905Z,3.60
2018-12-08T08:59:50.225Z,8.93
2018-12-08T09:02:20.778Z,1.80
2018-12-08T09:04:51.453Z,3.13
2018-12-08T09:07:22.216Z,2.10
2018-12-08T09:09:52.707Z,1.50
2018-12-08T09:12:23.542Z,5.95
2018-12-08T09:14:59.784Z,1.77
2018-12-08T09:17:30.840Z,3.13
2018-12-08T09:20:01.911Z,2.60
2018-12-08T09:22:37.890Z,3.90
2018-12-08T09:25:10.736Z,1.37
2018-12-08T09:27:40.925Z,5.33
2018-12-08T09:30:12.022Z,5.13
2018-12-08T09:32:43.863Z,1.50
2018-12-08T09:35:15.840Z,1.83
2018-12-08T09:37:46.378Z,2.87
2018-12-08T09:40:16.955Z,2.13
2018-12-08T09:42:47.332Z,2.37
2018-12-08T09:45:18.021Z,3.53
2018-12-08T09:47:54.846Z,5.03
2018-12-08T09:50:27.785Z,3.53
2018-12-08T09:53:13.088Z,5.50
2018-12-08T09:55:45.051Z,4.07
2018-12-08T09:58:17.106Z,1.97
2018-12-08T10:00:49.188Z,3.57
2018-12-08T10:03:20.142Z,2.57
2018-12-08T10:05:50.440Z,4.13
2018-12-08T10:08:21.092Z,4.40
2018-12-08T10:10:53.067Z,1.47
2018-12-08T10:13:23.316Z,2.08
2018-12-08T10:15:56.190Z,1.45
2018-12-08T10:18:30.444Z,1.40
2018-12-08T10:21:01.279Z,3.60
2018-12-08T10:23:32.231Z,1.67
2018-12-08T10:26:03.196Z,3.40
2018-12-08T10:28:34.292Z,1.27
2018-12-08T10:31:07.453Z,1.47
2018-12-08T10:33:37.661Z,4.53
2018-12-08T10:36:10.637Z,2.23
2018-12-08T10:38:41.110Z,2.03
2018-12-08T10:41:14.207Z,2.90
2018-12-08T10:43:44.361Z,4.43
2018-12-08T10:46:16.427Z,8.93
2018-12-08T10:48:47.354Z,3.73
2018-12-08T10:51:20.519Z,1.65
2018-12-08T10:53:51.252Z,6.87
2018-12-08T10:56:21.297Z,2.00
2018-12-08T10:58:52.423Z,1.67
2018-12-08T11:01:29.525Z,4.73
2018-12-08T11:04:00.177Z,7.50
2018-12-08T11:06:32.522Z,3.23
2018-12-08T11:09:07.847Z,6.70
2018-12-08T11:11:38.508Z,3.93
2018-12-08T11:14:13.310Z,3.23
2018-12-08T11:16:44.780Z,1.37
2018-12-08T11:19:17.649Z,3.77
2018-12-08T11:21:54.286Z,3.97
2018-12-08T11:24:25.865Z,2.83
2018-12-08T11:26:56.493Z,3.50
2018-12-08T11:29:27.524Z,2.93
2018-12-08T11:31:57.768Z,1.30
2018-12-08T11:34:28.627Z,2.77
2018-12-08T11:36:59.548Z,3.87
2018-12-08T11:39:30.450Z,4.00
2018-12-08T11:42:00.911Z,7.73
2018-12-08T11:44:31.795Z,1.50
2018-12-08T11:47:02.617Z,4.60
2018-12-08T11:49:35.210Z,3.30
2018-12-08T11:52:06.567Z,2.07
2018-12-08T11:54:37.265Z,2.20
2018-12-08T11:57:07.737Z,4.30
2018-12-08T11:59:38.286Z,3.33
2018-12-08T12:02:16.306Z,5.73
2018-12-08T12:04:42.572Z,2.47
2018-12-08T12:07:12.799Z,1.87
2018-12-08T12:09:46.670Z,3.00
2018-12-08T12:12:16.795Z,3.57
2018-12-08T12:14:50.304Z,2.37
2018-12-08T12:17:20.737Z,7.40
2018-12-08T12:19:50.673Z,4.37
2018-12-08T12:22:22.632Z,3.07
2018-12-08T12:24:54.828Z,1.53
2018-12-08T12:27:25.823Z,1.90
2018-12-08T12:29:55.821Z,2.30
2018-12-08T12:32:27.105Z,4.87
2018-12-08T12:34:59.914Z,3.63
2018-12-08T12:37:30.872Z,2.00
2018-12-08T12:40:08.019Z,1.43
2018-12-08T12:42:39.053Z,1.63
2018-12-08T12:45:12.052Z,4.43
2018-12-08T12:47:44.937Z,1.83
2018-12-08T12:50:16.013Z,2.23
2018-12-08T12:52:46.137Z,2.47
2018-12-08T12:55:17.408Z,1.77
2018-12-08T12:57:47.928Z,3.53
2018-12-08T13:00:18.901Z,4.40
2018-12-08T13:02:49.621Z,1.73
2018-12-08T13:05:19.987Z,1.62
2018-12-08T13:07:53.097Z,1.60
2018-12-08T13:10:26.066Z,1.60
2018-12-08T13:13:00.021Z,3.00
2018-12-08T13:15:30.237Z,5.63
2018-12-08T13:18:03.837Z,11.10
2018-12-08T13:20:33.907Z,4.30
2018-12-08T13:23:04.958Z,6.67
2018-12-08T13:25:35.128Z,9.57
2018-12-08T13:28:06.159Z,5.78
2018-12-08T13:30:41.954Z,3.40
2018-12-08T13:33:12.980Z,4.30
2018-12-08T13:35:53.519Z,5.20
2018-12-08T13:38:28.745Z,7.70
2018-12-08T13:41:00.150Z,2.77
2018-12-08T13:43:31.334Z,5.77
2018-12-08T13:46:04.712Z,2.17
2018-12-08T13:48:35.590Z,3.83
2018-12-08T13:51:05.853Z,3.85
2018-12-08T13:53:36.938Z,4.40
2018-12-08T13:56:07.347Z,4.00
2018-12-08T13:58:37.904Z,4.07
2018-12-08T14:01:11.095Z,2.67
2018-12-08T14:03:42.260Z,2.80
2018-12-08T14:06:13.809Z,5.90
2018-12-08T14:08:46.559Z,3.47
2018-12-08T14:11:17.184Z,4.30
2018-12-08T14:13:48.177Z,4.70
2018-12-08T14:16:19.667Z,4.28
2018-12-08T14:18:52.320Z,1.77
2018-12-08T14:21:22.441Z,1.83
2018-12-08T14:23:53.371Z,2.50
2018-12-08T14:26:23.591Z,2.50
2018-12-08T14:28:54.447Z,5.30
2018-12-08T14:31:27.663Z,5.13
2018-12-08T14:34:00.694Z,5.00
2018-12-08T14:36:32.209Z,2.50
2018-12-08T14:39:02.637Z,4.70
2018-12-08T14:41:33.346Z,3.83
2018-12-08T14:44:03.876Z,2.03
2018-12-08T14:46:34.582Z,3.73
2018-12-08T14:49:04.754Z,2.37
2018-12-08T14:51:35.599Z,2.73
2018-12-08T14:54:06.727Z,4.70
2018-12-08T14:56:37.066Z,3.13
2018-12-08T14:59:08.139Z,1.90
2018-12-08T15:01:38.485Z,1.57
2018-12-08T15:04:08.526Z,3.53
2018-12-08T15:06:38.707Z,3.40
2018-12-08T15:09:09.077Z,9.00
2018-12-08T15:11:41.538Z,3.90
2018-12-08T15:14:11.716Z,2.23
2018-12-08T15:16:44.464Z,1.73
2018-12-08T15:19:16.707Z,1.92
2018-12-08T15:21:53.560Z,1.70
2018-12-08T15:24:30.210Z,2.90
2018-12-08T15:27:03.347Z,2.50
2018-12-08T15:29:34.541Z,3.17
2018-12-08T15:32:07.617Z,3.17
2018-12-08T15:34:38.685Z,2.93
2018-12-08T15:37:09.747Z,3.27
2018-12-08T15:39:41.782Z,6.70
2018-12-08T15:42:18.820Z,1.43
2018-12-08T15:44:50.063Z,1.73
2018-12-08T15:47:20.737Z,1.20
2018-12-08T15:49:50.959Z,5.93
2018-12-08T15:52:27.676Z,4.60
2018-12-08T15:54:58.648Z,1.33
2018-12-08T15:57:28.932Z,1.60
2018-12-08T15:59:59.970Z,1.90
2018-12-08T16:02:30.472Z,2.37
2018-12-08T16:05:02.690Z,1.30
2018-12-08T16:07:34.819Z,1.70
2018-12-08T16:10:09.167Z,4.33
2018-12-08T16:12:42.354Z,1.83
2018-12-08T16:15:12.606Z,2.10
2018-12-08T16:17:43.267Z,8.03
2018-12-08T16:20:14.562Z,1.73
2018-12-08T16:22:44.864Z,1.70
2018-12-08T16:25:15.775Z,2.57
2018-12-08T16:27:46.367Z,4.20
2018-12-08T16:30:16.763Z,2.30
2018-12-08T16:32:50.560Z,2.60
2018-12-08T16:35:21.946Z,2.73
2018-12-08T16:37:56.952Z,2.30
2018-12-08T16:40:26.241Z,2.50
2018-12-08T16:42:58.846Z,5.30
2018-12-08T16:45:28.928Z,4.25
2018-12-08T16:47:59.801Z,5.23
2018-12-08T16:50:30.642Z,9.50
2018-12-08T16:53:00.872Z,4.43
2018-12-08T16:55:31.963Z,2.77
2018-12-08T16:58:03.100Z,1.57
2018-12-08T17:00:35.398Z,3.17
2018-12-08T17:03:07.087Z,1.87
2018-12-08T17:05:39.132Z,3.60
2018-12-08T17:08:10.985Z,1.53
2018-12-08T17:10:41.675Z,2.33
2018-12-08T17:13:12.129Z,2.63
2018-12-08T17:15:42.760Z,3.00
2018-12-08T17:18:13.039Z,5.43
2018-12-08T17:20:47.028Z,8.40
2018-12-08T17:23:18.051Z,3.30
2018-12-08T17:25:48.101Z,2.60
2018-12-08T17:28:19.114Z,2.80
2018-12-08T17:30:50.126Z,4.33
2018-12-08T17:33:20.233Z,2.47
2018-12-08T17:35:57.195Z,1.70
2018-12-08T17:38:28.255Z,1.70
2018-12-08T17:40:59.271Z,2.05
2018-12-08T17:43:30.685Z,2.27
2018-12-08T17:46:01.216Z,3.57
2018-12-08T17:48:31.916Z,1.37
2018-12-08T17:51:02.283Z,2.90
2018-12-08T17:53:35.330Z,2.20
2018-12-08T17:56:08.309Z,2.53
2018-12-08T17:58:39.204Z,3.00
2018-12-08T18:01:09.212Z,3.73
2018-12-08T18:03:39.274Z,8.70
2018-12-08T18:06:10.467Z,13.97
2018-12-08T18:08:41.858Z,6.07
2018-12-08T18:11:12.266Z,16.93
2018-12-08T18:13:42.406Z,41.93
2018-12-08T18:16:19.372Z,5.90
2018-12-08T18:18:50.197Z,2.70
2018-12-08T18:21:21.314Z,2.95
2018-12-08T18:23:51.646Z,2.30
2018-12-08T18:26:22.495Z,5.43
2018-12-08T18:29:01.253Z,1.93
2018-12-08T18:31:32.318Z,2.23
2018-12-08T18:34:03.342Z,2.43
2018-12-08T18:36:39.253Z,1.23
2018-12-08T18:39:10.314Z,8.90
2018-12-08T18:41:42.710Z,1.50
2018-12-08T18:44:15.296Z,0.73
2018-12-08T18:46:46.669Z,1.53
2018-12-08T18:49:23.082Z,1.73
2018-12-08T18:51:53.842Z,1.00
2018-12-08T18:54:24.499Z,4.73
2018-12-08T18:56:55.142Z,1.70
2018-12-08T18:59:25.525Z,0.90
2018-12-08T19:01:59.411Z,1.17
2018-12-08T19:04:29.550Z,2.05
2018-12-08T19:07:00.464Z,7.27
2018-12-08T19:09:30.717Z,43.83
2018-12-08T19:12:02.666Z,4.23
2018-12-08T19:14:35.571Z,4.50
2018-12-08T19:17:06.523Z,4.43
2018-12-08T19:19:38.663Z,2.23
2018-12-08T19:22:15.540Z,3.00
2018-12-08T19:24:46.808Z,4.00
2018-12-08T19:27:17.571Z,3.37
2018-12-08T19:29:47.567Z,2.67
2018-12-08T19:32:18.875Z,3.27
2018-12-08T19:34:49.637Z,2.33
2018-12-08T19:37:20.188Z,2.93
2018-12-08T19:39:50.742Z,1.30
2018-12-08T19:42:21.928Z,1.00
2018-12-08T19:44:52.391Z,1.12
2018-12-08T19:47:22.842Z,1.30
2018-12-08T19:49:53.816Z,1.37
2018-12-08T19:52:24.713Z,1.27
2018-12-08T19:54:56.052Z,0.90
2018-12-08T19:57:26.317Z,6.90
2018-12-08T19:59:57.063Z,1.60
2018-12-08T20:02:27.780Z,4.97
2018-12-08T20:04:58.156Z,2.23
2018-12-08T20:07:28.645Z,1.83
2018-12-08T20:09:59.105Z,6.23
2018-12-08T20:12:29.808Z,1.43
2018-12-08T20:14:59.993Z,1.50
2018-12-08T20:17:30.993Z,1.25
2018-12-08T20:20:01.224Z,2.37
2018-12-08T20:22:31.848Z,1.10
2018-12-08T20:25:01.933Z,1.90
2018-12-08T20:27:36.011Z,3.03
2018-12-08T20:30:09.668Z,1.37
2018-12-08T20:32:42.040Z,1.70
2018-12-08T20:35:18.761Z,1.20
2018-12-08T20:37:50.073Z,1.73
2018-12-08T20:40:20.848Z,2.00
2018-12-08T20:42:51.554Z,1.70
2018-12-08T20:45:21.957Z,1.40
2018-12-08T20:47:52.666Z,1.37
2018-12-08T20:50:23.599Z,4.90
2018-12-08T20:52:54.175Z,1.87
2018-12-08T20:55:27.572Z,2.37
2018-12-08T20:57:58.271Z,2.73
2018-12-08T21:00:29.079Z,2.30
2018-12-08T21:03:06.169Z,2.20
2018-12-08T21:05:36.313Z,2.10
2018-12-08T21:08:12.982Z,1.73
2018-12-08T21:10:43.888Z,1.70
2018-12-08T21:13:14.156Z,1.90
2018-12-08T21:15:45.501Z,1.43
2018-12-08T21:18:16.007Z,5.70
2018-12-08T21:20:46.623Z,24.03
2018-12-08T21:23:17.033Z,11.08
2018-12-08T21:25:47.328Z,2.77
2018-12-08T21:28:17.956Z,2.40
2018-12-08T21:30:48.238Z,2.07
2018-12-08T21:33:19.629Z,2.40
2018-12-08T21:35:49.643Z,3.10
2018-12-08T21:38:20.025Z,1.85
2018-12-08T21:40:50.636Z,2.10
2018-12-08T21:43:21.264Z,1.30
2018-12-08T21:45:51.911Z,1.40
2018-12-08T21:48:22.430Z,2.53
2018-12-08T21:50:53.060Z,1.50
2018-12-08T21:53:23.348Z,1.17
2018-12-08T21:55:54.311Z,2.30
2018-12-08T21:58:25.182Z,11.87
2018-12-08T22:00:55.245Z,1.57
2018-12-08T22:03:26.183Z,2.27
2018-12-08T22:05:56.246Z,2.13
2018-12-08T22:08:27.196Z,2.20
2018-12-08T22:10:58.371Z,1.30
2018-12-08T22:13:35.222Z,1.73
2018-12-08T22:16:06.407Z,1.90
2018-12-08T22:18:36.382Z,3.80
2018-12-08T22:21:06.480Z,1.40
2018-12-08T22:23:36.452Z,2.50
2018-12-08T22:26:07.739Z,1.90
2018-12-08T22:28:39.974Z,1.23
2018-12-08T22:36:17.317Z,0.87
2018-12-08T22:38:49.488Z,1.77
2018-12-08T22:41:20.560Z,1.73
2018-12-08T22:43:50.511Z,1.57
2018-12-08T22:46:21.563Z,2.55
2018-12-08T22:48:52.787Z,1.27
2018-12-08T22:51:23.978Z,1.10
2018-12-08T22:53:54.337Z,1.20
2018-12-08T22:56:27.650Z,2.93
2018-12-08T22:58:59.579Z,1.30
2018-12-08T23:01:31.782Z,1.13
2018-12-08T23:04:03.510Z,1.13
2018-12-08T23:06:35.682Z,0.90
2018-12-08T23:09:07.964Z,1.10
2018-12-08T23:11:39.519Z,1.17
2018-12-08T23:14:09.559Z,1.00
2018-12-08T23:16:39.644Z,1.53
2018-12-08T23:19:10.652Z,2.30
2018-12-08T23:21:42.099Z,1.27
2018-12-08T23:24:12.111Z,0.70
2018-12-08T23:26:42.732Z,2.80
2018-12-08T23:29:12.771Z,4.00
2018-12-08T23:31:42.914Z,0.72
2018-12-08T23:34:14.668Z,1.10
2018-12-08T23:36:45.452Z,1.50
2018-12-08T23:39:15.824Z,1.63
2018-12-08T23:41:45.793Z,3.57
2018-12-08T23:44:16.653Z,2.80
2018-12-08T23:46:48.220Z,0.80
2018-12-08T23:49:18.943Z,1.37
2018-12-08T23:51:48.910Z,1.30
2018-12-08T23:54:18.966Z,1.37
2018-12-08T23:56:51.027Z,0.87
2018-12-08T23:59:27.620Z,1.17
